sensor_id;sensor_type;location;lat;lon;timestamp;pressure;altitude;pressure_sealevel;temperature
12430;BMP280;6279;42.192;24.326;2022-08-26T00:01:12;98328.75;;;24.64
12430;BMP280;6279;42.192;24.326;2022-08-26T00:03:38;98329.84;;;24.68
12430;BMP280;6279;42.192;24.326;2022-08-26T00:06:04;98328.50;;;24.76
12430;BMP280;6279;42.192;24.326;2022-08-26T00:08:30;98322.13;;;24.77
12430;BMP280;6279;42.192;24.326;2022-08-26T00:10:56;98329.84;;;24.68
12430;BMP280;6279;42.192;24.326;2022-08-26T00:13:21;98330.38;;;24.75
12430;BMP280;6279;42.192;24.326;2022-08-26T00:15:47;98321.34;;;24.71
12430;BMP280;6279;42.192;24.326;2022-08-26T00:18:13;98328.25;;;24.72
12430;BMP280;6279;42.192;24.326;2022-08-26T00:20:39;98338.34;;;24.65
12430;BMP280;6279;42.192;24.326;2022-08-26T00:23:04;98333.81;;;24.66
12430;BMP280;6279;42.192;24.326;2022-08-26T00:25:30;98326.16;;;24.69
12430;BMP280;6279;42.192;24.326;2022-08-26T00:27:56;98325.59;;;24.63
12430;BMP280;6279;42.192;24.326;2022-08-26T00:30:27;98326.69;;;24.57
12430;BMP280;6279;42.192;24.326;2022-08-26T00:32:53;98328.78;;;24.60
12430;BMP280;6279;42.192;24.326;2022-08-26T00:35:18;98321.09;;;24.58
12430;BMP280;6279;42.192;24.326;2022-08-26T00:37:44;98319.50;;;24.57
12430;BMP280;6279;42.192;24.326;2022-08-26T00:40:27;98323.19;;;24.61
12430;BMP280;6279;42.192;24.326;2022-08-26T00:42:53;98325.34;;;24.59
12430;BMP280;6279;42.192;24.326;2022-08-26T00:45:19;98326.16;;;24.55
12430;BMP280;6279;42.192;24.326;2022-08-26T00:47:51;98318.72;;;24.52
12430;BMP280;6279;42.192;24.326;2022-08-26T00:50:22;98320.59;;;24.51
12430;BMP280;6279;42.192;24.326;2022-08-26T00:52:49;98316.56;;;24.59
12430;BMP280;6279;42.192;24.326;2022-08-26T00:55:33;98314.16;;;24.62
12430;BMP280;6279;42.192;24.326;2022-08-26T00:58:00;98326.38;;;24.63
12430;BMP280;6279;42.192;24.326;2022-08-26T01:00:28;98316.78;;;24.67
12430;BMP280;6279;42.192;24.326;2022-08-26T01:02:55;98320.81;;;24.69
12430;BMP280;6279;42.192;24.326;2022-08-26T01:05:22;98318.94;;;24.75
12430;BMP280;6279;42.192;24.326;2022-08-26T01:07:48;98312.56;;;24.71
12430;BMP280;6279;42.192;24.326;2022-08-26T01:10:17;98310.97;;;24.70
12430;BMP280;6279;42.192;24.326;2022-08-26T01:12:53;98311.78;;;24.70
12430;BMP280;6279;42.192;24.326;2022-08-26T01:15:31;98325.34;;;24.69
12430;BMP280;6279;42.192;24.326;2022-08-26T01:17:58;98326.94;;;24.70
12430;BMP280;6279;42.192;24.326;2022-08-26T01:20:42;98326.66;;;24.71
12430;BMP280;6279;42.192;24.326;2022-08-26T01:23:11;98330.66;;;24.69
12430;BMP280;6279;42.192;24.326;2022-08-26T01:25:41;98330.91;;;24.63
12430;BMP280;6279;42.192;24.326;2022-08-26T01:28:17;98323.19;;;24.61
12430;BMP280;6279;42.192;24.326;2022-08-26T01:30:47;98340.00;;;24.52
12430;BMP280;6279;42.192;24.326;2022-08-26T01:33:16;98329.84;;;24.59
12430;BMP280;6279;42.192;24.326;2022-08-26T01:35:45;98325.59;;;24.63
12430;BMP280;6279;42.192;24.326;2022-08-26T01:38:11;98331.19;;;24.61
12430;BMP280;6279;42.192;24.326;2022-08-26T01:40:37;98328.28;;;24.58
12430;BMP280;6279;42.192;24.326;2022-08-26T01:43:06;98333.88;;;24.46
12430;BMP280;6279;42.192;24.326;2022-08-26T01:45:33;98323.53;;;24.50
12430;BMP280;6279;42.192;24.326;2022-08-26T01:48:02;98332.06;;;24.37
12430;BMP280;6279;42.192;24.326;2022-08-26T01:50:31;98330.19;;;24.38
12430;BMP280;6279;42.192;24.326;2022-08-26T01:53:00;98331.75;;;24.43
12430;BMP280;6279;42.192;24.326;2022-08-26T01:55:27;98328.88;;;24.35
12430;BMP280;6279;42.192;24.326;2022-08-26T01:57:55;98317.91;;;24.46
12430;BMP280;6279;42.192;24.326;2022-08-26T02:00:22;98327.22;;;24.49
12430;BMP280;6279;42.192;24.326;2022-08-26T02:02:51;98325.34;;;24.49
12430;BMP280;6279;42.192;24.326;2022-08-26T02:05:38;98322.97;;;24.48
12430;BMP280;6279;42.192;24.326;2022-08-26T02:08:04;98322.97;;;24.48
12430;BMP280;6279;42.192;24.326;2022-08-26T02:10:29;98332.28;;;24.50
12430;BMP280;6279;42.192;24.326;2022-08-26T02:12:55;98334.16;;;24.50
12430;BMP280;6279;42.192;24.326;2022-08-26T02:15:20;98336.78;;;24.55
12430;BMP280;6279;42.192;24.326;2022-08-26T02:17:46;98344.75;;;24.55
12430;BMP280;6279;42.192;24.326;2022-08-26T02:20:15;98338.94;;;24.53
12430;BMP280;6279;42.192;24.326;2022-08-26T02:22:42;98339.19;;;24.46
12430;BMP280;6279;42.192;24.326;2022-08-26T02:25:31;98338.94;;;24.43
12430;BMP280;6279;42.192;24.326;2022-08-26T02:27:58;98334.69;;;24.42
12430;BMP280;6279;42.192;24.326;2022-08-26T02:30:29;98336.56;;;24.37
12430;BMP280;6279;42.192;24.326;2022-08-26T02:33:00;98330.44;;;24.41
12430;BMP280;6279;42.192;24.326;2022-08-26T02:35:28;98333.13;;;24.36
12430;BMP280;6279;42.192;24.326;2022-08-26T02:37:54;98326.22;;;24.25
12430;BMP280;6279;42.192;24.326;2022-08-26T02:40:23;98327.84;;;24.17
12430;BMP280;6279;42.192;24.326;2022-08-26T02:42:48;98326.53;;;24.14
12430;BMP280;6279;42.192;24.326;2022-08-26T02:45:14;98328.63;;;24.12
12430;BMP280;6279;42.192;24.326;2022-08-26T02:47:40;98335.03;;;24.16
12430;BMP280;6279;42.192;24.326;2022-08-26T02:50:05;98327.56;;;24.13
12430;BMP280;6279;42.192;24.326;2022-08-26T02:52:31;98325.44;;;24.10
12430;BMP280;6279;42.192;24.326;2022-08-26T02:54:57;98328.13;;;24.05
12430;BMP280;6279;42.192;24.326;2022-08-26T02:57:22;98318.25;;;24.01
12430;BMP280;6279;42.192;24.326;2022-08-26T02:59:48;98312.16;;;24.05
12430;BMP280;6279;42.192;24.326;2022-08-26T03:02:13;98315.91;;;24.04
12430;BMP280;6279;42.192;24.326;2022-08-26T03:04:39;98317.75;;;24.09
12430;BMP280;6279;42.192;24.326;2022-08-26T03:07:05;98310.31;;;23.96
12430;BMP280;6279;42.192;24.326;2022-08-26T03:09:31;98314.53;;;23.92
12430;BMP280;6279;42.192;24.326;2022-08-26T03:11:57;98314.53;;;23.92
12430;BMP280;6279;42.192;24.326;2022-08-26T03:14:24;98314.28;;;23.94
12430;BMP280;6279;42.192;24.326;2022-08-26T03:16:51;98315.06;;;23.94
12430;BMP280;6279;42.192;24.326;2022-08-26T03:19:19;98315.34;;;23.97
12430;BMP280;6279;42.192;24.326;2022-08-26T03:21:45;98314.31;;;24.03
12430;BMP280;6279;42.192;24.326;2022-08-26T03:24:10;98313.47;;;24.03
12430;BMP280;6279;42.192;24.326;2022-08-26T03:26:36;98320.94;;;24.06
12430;BMP280;6279;42.192;24.326;2022-08-26T03:29:02;98322.53;;;23.97
12430;BMP280;6279;42.192;24.326;2022-08-26T03:31:46;98325.97;;;23.93
12430;BMP280;6279;42.192;24.326;2022-08-26T03:34:12;98325.19;;;23.87
12430;BMP280;6279;42.192;24.326;2022-08-26T03:36:38;98326.25;;;23.86
12430;BMP280;6279;42.192;24.326;2022-08-26T03:39:03;98328.38;;;23.84
12430;BMP280;6279;42.192;24.326;2022-08-26T03:41:29;98323.59;;;23.81
12430;BMP280;6279;42.192;24.326;2022-08-26T03:43:57;98323.06;;;23.79
12430;BMP280;6279;42.192;24.326;2022-08-26T03:46:22;98327.28;;;23.75
12430;BMP280;6279;42.192;24.326;2022-08-26T03:48:47;98331.00;;;23.74
12430;BMP280;6279;42.192;24.326;2022-08-26T03:51:16;98333.16;;;23.82
12430;BMP280;6279;42.192;24.326;2022-08-26T03:53:42;98319.34;;;23.80
12430;BMP280;6279;42.192;24.326;2022-08-26T03:56:08;98328.09;;;23.86
12430;BMP280;6279;42.192;24.326;2022-08-26T03:58:34;98318.25;;;23.91
12430;BMP280;6279;42.192;24.326;2022-08-26T04:00:59;98331.00;;;23.89
12430;BMP280;6279;42.192;24.326;2022-08-26T04:03:25;98330.47;;;23.87
12430;BMP280;6279;42.192;24.326;2022-08-26T04:06:10;98326.22;;;23.91
12430;BMP280;6279;42.192;24.326;2022-08-26T04:08:35;98321.44;;;23.93
12430;BMP280;6279;42.192;24.326;2022-08-26T04:11:01;98314.81;;;23.91
12430;BMP280;6279;42.192;24.326;2022-08-26T04:13:27;98324.88;;;23.94
12430;BMP280;6279;42.192;24.326;2022-08-26T04:15:53;98323.56;;;23.91
12430;BMP280;6279;42.192;24.326;2022-08-26T04:18:19;98325.69;;;23.94
12430;BMP280;6279;42.192;24.326;2022-08-26T04:20:44;98327.56;;;23.98
12430;BMP280;6279;42.192;24.326;2022-08-26T04:23:11;98325.44;;;24.10
12430;BMP280;6279;42.192;24.326;2022-08-26T04:25:38;98318.78;;;24.13
12430;BMP280;6279;42.192;24.326;2022-08-26T04:28:04;98322.50;;;24.12
12430;BMP280;6279;42.192;24.326;2022-08-26T04:30:30;98328.63;;;24.02
12430;BMP280;6279;42.192;24.326;2022-08-26T04:32:55;98328.13;;;24.05
12430;BMP280;6279;42.192;24.326;2022-08-26T04:35:20;98325.72;;;24.04
12430;BMP280;6279;42.192;24.326;2022-08-26T04:37:46;98333.13;;;24.02
12430;BMP280;6279;42.192;24.326;2022-08-26T04:40:13;98336.59;;;24.07
12430;BMP280;6279;42.192;24.326;2022-08-26T04:42:38;98345.13;;;24.14
12430;BMP280;6279;42.192;24.326;2022-08-26T04:45:04;98333.94;;;24.22
12430;BMP280;6279;42.192;24.326;2022-08-26T04:47:30;98329.16;;;24.24
12430;BMP280;6279;42.192;24.326;2022-08-26T04:49:55;98336.56;;;24.37
12430;BMP280;6279;42.192;24.326;2022-08-26T04:52:22;98322.69;;;24.49
12430;BMP280;6279;42.192;24.326;2022-08-26T04:54:47;98336.25;;;24.48
12430;BMP280;6279;42.192;24.326;2022-08-26T04:57:12;98338.94;;;24.53
12430;BMP280;6279;42.192;24.326;2022-08-26T04:59:38;98335.69;;;24.65
12430;BMP280;6279;42.192;24.326;2022-08-26T05:02:04;98333.53;;;24.82
12430;BMP280;6279;42.192;24.326;2022-08-26T05:04:30;98333.47;;;24.97
12430;BMP280;6279;42.192;24.326;2022-08-26T05:06:55;98324.81;;;25.24
12430;BMP280;6279;42.192;24.326;2022-08-26T05:09:21;98336.94;;;25.45
12430;BMP280;6279;42.192;24.326;2022-08-26T05:11:47;98343.69;;;25.70
12430;BMP280;6279;42.192;24.326;2022-08-26T05:14:13;98338.75;;;25.87
12430;BMP280;6279;42.192;24.326;2022-08-26T05:16:39;98335.72;;;26.03
12430;BMP280;6279;42.192;24.326;2022-08-26T05:19:04;98333.06;;;26.31
12430;BMP280;6279;42.192;24.326;2022-08-26T05:21:31;98333.16;;;26.49
12430;BMP280;6279;42.192;24.326;2022-08-26T05:23:57;98338.91;;;26.84
12430;BMP280;6279;42.192;24.326;2022-08-26T05:26:28;98336.94;;;27.12
12430;BMP280;6279;42.192;24.326;2022-08-26T05:28:55;98338.06;;;27.29
12430;BMP280;6279;42.192;24.326;2022-08-26T05:31:24;98339.50;;;27.58
12430;BMP280;6279;42.192;24.326;2022-08-26T05:33:51;98344.63;;;27.73
12430;BMP280;6279;42.192;24.326;2022-08-26T05:36:18;98349.75;;;27.51
12430;BMP280;6279;42.192;24.326;2022-08-26T05:38:44;98346.22;;;27.37
12430;BMP280;6279;42.192;24.326;2022-08-26T05:41:23;98352.94;;;27.12
12430;BMP280;6279;42.192;24.326;2022-08-26T05:43:51;98348.03;;;27.01
12430;BMP280;6279;42.192;24.326;2022-08-26T05:46:17;98341.28;;;26.85
12430;BMP280;6279;42.192;24.326;2022-08-26T05:48:43;98358.03;;;26.90
12430;BMP280;6279;42.192;24.326;2022-08-26T05:51:10;98358.19;;;26.99
12430;BMP280;6279;42.192;24.326;2022-08-26T05:53:37;98357.75;;;26.92
12430;BMP280;6279;42.192;24.326;2022-08-26T05:56:05;98352.91;;;26.94
12430;BMP280;6279;42.192;24.326;2022-08-26T05:58:32;98349.53;;;27.29
12430;BMP280;6279;42.192;24.326;2022-08-26T06:01:10;98350.91;;;27.81
12430;BMP280;6279;42.192;24.326;2022-08-26T06:03:38;98359.63;;;28.36
12430;BMP280;6279;42.192;24.326;2022-08-26T06:06:10;98358.03;;;28.93
12430;BMP280;6279;42.192;24.326;2022-08-26T06:08:36;98363.19;;;29.16
12430;BMP280;6279;42.192;24.326;2022-08-26T06:11:04;98372.13;;;28.98
12430;BMP280;6279;42.192;24.326;2022-08-26T06:13:31;98381.03;;;28.81
12430;BMP280;6279;42.192;24.326;2022-08-26T06:15:57;98393.09;;;28.78
12430;BMP280;6279;42.192;24.326;2022-08-26T06:18:29;98380.38;;;28.57
12430;BMP280;6279;42.192;24.326;2022-08-26T06:20:57;98383.34;;;28.24
12430;BMP280;6279;42.192;24.326;2022-08-26T06:23:24;98385.59;;;28.17
12430;BMP280;6279;42.192;24.326;2022-08-26T06:26:09;98392.72;;;28.09
12430;BMP280;6279;42.192;24.326;2022-08-26T06:28:34;98392.66;;;27.96
12430;BMP280;6279;42.192;24.326;2022-08-26T06:31:01;98396.28;;;27.86
12430;BMP280;6279;42.192;24.326;2022-08-26T06:33:27;98394.41;;;27.87
12430;BMP280;6279;42.192;24.326;2022-08-26T06:35:53;98391.38;;;27.93
12430;BMP280;6279;42.192;24.326;2022-08-26T06:38:18;98397.81;;;27.92
12430;BMP280;6279;42.192;24.326;2022-08-26T06:40:49;98406.09;;;28.09
12430;BMP280;6279;42.192;24.326;2022-08-26T06:43:16;98404.53;;;28.21
12430;BMP280;6279;42.192;24.326;2022-08-26T06:45:42;98409.09;;;28.20
12430;BMP280;6279;42.192;24.326;2022-08-26T06:48:17;98416.75;;;28.27
12430;BMP280;6279;42.192;24.326;2022-08-26T06:50:43;98419.50;;;28.22
12430;BMP280;6279;42.192;24.326;2022-08-26T06:53:10;98417.91;;;28.21
12430;BMP280;6279;42.192;24.326;2022-08-26T06:55:44;98415.41;;;28.42
12430;BMP280;6279;42.192;24.326;2022-08-26T06:58:11;98417.34;;;28.55
12430;BMP280;6279;42.192;24.326;2022-08-26T07:00:37;98414.31;;;28.62
12430;BMP280;6279;42.192;24.326;2022-08-26T07:03:04;98419.66;;;28.62
12430;BMP280;6279;42.192;24.326;2022-08-26T07:05:30;98410.63;;;28.71
12430;BMP280;6279;42.192;24.326;2022-08-26T07:07:56;98408.84;;;28.66
12430;BMP280;6279;42.192;24.326;2022-08-26T07:10:22;98408.34;;;28.64
12430;BMP280;6279;42.192;24.326;2022-08-26T07:12:48;98411.66;;;28.88
12430;BMP280;6279;42.192;24.326;2022-08-26T07:15:14;98408.00;;;29.10
12430;BMP280;6279;42.192;24.326;2022-08-26T07:17:39;98407.59;;;29.30
12430;BMP280;6279;42.192;24.326;2022-08-26T07:20:05;98404.34;;;29.33
12430;BMP280;6279;42.192;24.326;2022-08-26T07:22:32;98410.41;;;29.52
12430;BMP280;6279;42.192;24.326;2022-08-26T07:24:58;98413.63;;;29.62
12430;BMP280;6279;42.192;24.326;2022-08-26T07:27:23;98411.25;;;29.60
12430;BMP280;6279;42.192;24.326;2022-08-26T07:29:49;98402.44;;;29.60
12430;BMP280;6279;42.192;24.326;2022-08-26T07:32:17;98410.97;;;29.62
12430;BMP280;6279;42.192;24.326;2022-08-26T07:34:44;98409.97;;;29.58
12430;BMP280;6279;42.192;24.326;2022-08-26T07:37:09;98399.47;;;29.48
12430;BMP280;6279;42.192;24.326;2022-08-26T07:39:35;98406.22;;;29.46
12430;BMP280;6279;42.192;24.326;2022-08-26T07:42:02;98407.88;;;29.42
12430;BMP280;6279;42.192;24.326;2022-08-26T07:44:28;98409.19;;;29.57
12430;BMP280;6279;42.192;24.326;2022-08-26T07:46:53;98403.72;;;29.84
12430;BMP280;6279;42.192;24.326;2022-08-26T07:49:21;98407.28;;;30.06
12430;BMP280;6279;42.192;24.326;2022-08-26T07:51:47;98404.28;;;30.50
12430;BMP280;6279;42.192;24.326;2022-08-26T07:54:13;98403.38;;;31.23
12430;BMP280;6279;42.192;24.326;2022-08-26T07:56:39;98404.91;;;31.62
12430;BMP280;6279;42.192;24.326;2022-08-26T07:59:04;98410.16;;;31.67
12430;BMP280;6279;42.192;24.326;2022-08-26T08:01:30;98404.91;;;31.62
12430;BMP280;6279;42.192;24.326;2022-08-26T08:03:56;98406.25;;;31.34
12430;BMP280;6279;42.192;24.326;2022-08-26T08:06:24;98400.69;;;31.23
12430;BMP280;6279;42.192;24.326;2022-08-26T08:08:50;98402.69;;;31.09
12430;BMP280;6279;42.192;24.326;2022-08-26T08:11:16;98398.78;;;31.23
12430;BMP280;6279;42.192;24.326;2022-08-26T08:13:42;98395.34;;;31.39
12430;BMP280;6279;42.192;24.326;2022-08-26T08:16:07;98407.13;;;31.60
12430;BMP280;6279;42.192;24.326;2022-08-26T08:18:33;98402.22;;;31.78
12430;BMP280;6279;42.192;24.326;2022-08-26T08:20:58;98412.38;;;32.15
12430;BMP280;6279;42.192;24.326;2022-08-26T08:23:28;98409.84;;;32.60
12430;BMP280;6279;42.192;24.326;2022-08-26T08:28:26;98407.78;;;33.67
12430;BMP280;6279;42.192;24.326;2022-08-26T08:30:52;98417.44;;;34.16
12430;BMP280;6279;42.192;24.326;2022-08-26T08:33:17;98409.94;;;34.53
12430;BMP280;6279;42.192;24.326;2022-08-26T08:35:43;98406.16;;;34.14
12430;BMP280;6279;42.192;24.326;2022-08-26T08:38:10;98407.84;;;33.78
12430;BMP280;6279;42.192;24.326;2022-08-26T08:40:39;98402.75;;;33.57
12430;BMP280;6279;42.192;24.326;2022-08-26T08:43:13;98408.38;;;33.72
12430;BMP280;6279;42.192;24.326;2022-08-26T08:45:53;98402.94;;;33.80
12430;BMP280;6279;42.192;24.326;2022-08-26T08:48:26;98388.97;;;33.98
12430;BMP280;6279;42.192;24.326;2022-08-26T08:53:43;98387.41;;;33.97
12430;BMP280;6279;42.192;24.326;2022-08-26T09:10:43;98399.88;;;31.14
12430;BMP280;6279;42.192;24.326;2022-08-26T09:13:17;98400.88;;;30.58
12430;BMP280;6279;42.192;24.326;2022-08-26T09:18:46;98394.75;;;27.44
12430;BMP280;6279;42.192;24.326;2022-08-26T09:21:16;98396.53;;;26.85
12430;BMP280;6279;42.192;24.326;2022-08-26T09:23:43;98401.00;;;27.12
12430;BMP280;6279;42.192;24.326;2022-08-26T09:26:16;98397.84;;;27.87
12430;BMP280;6279;42.192;24.326;2022-08-26T09:28:48;98404.38;;;28.62
12430;BMP280;6279;42.192;24.326;2022-08-26T09:31:27;98410.00;;;29.05
12430;BMP280;6279;42.192;24.326;2022-08-26T09:36:42;98399.25;;;29.58
12430;BMP280;6279;42.192;24.326;2022-08-26T09:45:05;98407.31;;;30.36
12430;BMP280;6279;42.192;24.326;2022-08-26T09:47:52;98413.16;;;30.38
12430;BMP280;6279;42.192;24.326;2022-08-26T09:50:31;98408.56;;;30.81
12430;BMP280;6279;42.192;24.326;2022-08-26T09:55:41;98417.84;;;31.51
12430;BMP280;6279;42.192;24.326;2022-08-26T09:58:12;98418.88;;;32.39
12430;BMP280;6279;42.192;24.326;2022-08-26T10:00:52;98416.94;;;33.17
12430;BMP280;6279;42.192;24.326;2022-08-26T10:03:28;98421.38;;;33.13
12430;BMP280;6279;42.192;24.326;2022-08-26T10:06:22;98408.66;;;33.51
12430;BMP280;6279;42.192;24.326;2022-08-26T10:08:50;98403.59;;;34.18
12430;BMP280;6279;42.192;24.326;2022-08-26T10:14:28;98412.75;;;35.35
12430;BMP280;6279;42.192;24.326;2022-08-26T10:17:06;98413.88;;;35.34
12430;BMP280;6279;42.192;24.326;2022-08-26T10:19:40;98416.63;;;35.23
12430;BMP280;6279;42.192;24.326;2022-08-26T10:22:26;98418.16;;;35.94
12430;BMP280;6279;42.192;24.326;2022-08-26T10:24:58;98421.97;;;35.81
12430;BMP280;6279;42.192;24.326;2022-08-26T10:28:04;98415.03;;;35.57
12430;BMP280;6279;42.192;24.326;2022-08-26T10:30:44;98417.16;;;37.40
12430;BMP280;6279;42.192;24.326;2022-08-26T10:33:12;98413.50;;;39.37
12430;BMP280;6279;42.192;24.326;2022-08-26T10:36:03;98406.91;;;41.67
12430;BMP280;6279;42.192;24.326;2022-08-26T10:38:39;98408.72;;;42.16
12430;BMP280;6279;42.192;24.326;2022-08-26T10:41:15;98407.00;;;43.95
12430;BMP280;6279;42.192;24.326;2022-08-26T10:44:03;98405.09;;;42.86
12430;BMP280;6279;42.192;24.326;2022-08-26T10:46:45;98408.97;;;43.87
12430;BMP280;6279;42.192;24.326;2022-08-26T10:49:14;98403.50;;;42.74
12430;BMP280;6279;42.192;24.326;2022-08-26T10:59:59;98402.41;;;41.46
12430;BMP280;6279;42.192;24.326;2022-08-26T11:02:49;98398.03;;;40.92
12430;BMP280;6279;42.192;24.326;2022-08-26T11:05:20;98390.63;;;39.67
12430;BMP280;6279;42.192;24.326;2022-08-26T11:07:49;98392.63;;;39.98
12430;BMP280;6279;42.192;24.326;2022-08-26T11:17:59;98384.25;;;39.08
12430;BMP280;6279;42.192;24.326;2022-08-26T11:20:43;98371.59;;;38.97
12430;BMP280;6279;42.192;24.326;2022-08-26T11:31:51;98371.97;;;35.29
12430;BMP280;6279;42.192;24.326;2022-08-26T11:34:01;98370.41;;;35.39
12430;BMP280;6279;42.192;24.326;2022-08-26T11:39:03;98370.34;;;34.57
12430;BMP280;6279;42.192;24.326;2022-08-26T11:41:37;98367.25;;;35.02
12430;BMP280;6279;42.192;24.326;2022-08-26T11:44:02;98361.06;;;35.49
12430;BMP280;6279;42.192;24.326;2022-08-26T11:46:31;98353.94;;;35.32
12430;BMP280;6279;42.192;24.326;2022-08-26T11:49:04;98363.44;;;35.27
12430;BMP280;6279;42.192;24.326;2022-08-26T11:51:32;98362.66;;;34.47
12430;BMP280;6279;42.192;24.326;2022-08-26T11:54:13;98358.56;;;34.41
12430;BMP280;6279;42.192;24.326;2022-08-26T11:56:40;98358.66;;;34.01
12430;BMP280;6279;42.192;24.326;2022-08-26T11:59:08;98363.25;;;33.32
12430;BMP280;6279;42.192;24.326;2022-08-26T12:01:37;98360.69;;;33.07
12430;BMP280;6279;42.192;24.326;2022-08-26T12:04:05;98350.78;;;32.30
12430;BMP280;6279;42.192;24.326;2022-08-26T12:06:44;98356.69;;;31.73
12430;BMP280;6279;42.192;24.326;2022-08-26T12:09:18;98355.88;;;31.65
12430;BMP280;6279;42.192;24.326;2022-08-26T12:11:44;98346.72;;;32.07
12430;BMP280;6279;42.192;24.326;2022-08-26T12:14:22;98342.00;;;32.04
12430;BMP280;6279;42.192;24.326;2022-08-26T12:16:49;98341.00;;;31.59
12430;BMP280;6279;42.192;24.326;2022-08-26T12:19:31;98342.06;;;31.41
12430;BMP280;6279;42.192;24.326;2022-08-26T12:22:20;98352.41;;;31.64
12430;BMP280;6279;42.192;24.326;2022-08-26T12:24:59;98354.56;;;31.37
12430;BMP280;6279;42.192;24.326;2022-08-26T12:27:39;98354.38;;;31.26
12430;BMP280;6279;42.192;24.326;2022-08-26T12:30:10;98347.72;;;31.15
12430;BMP280;6279;42.192;24.326;2022-08-26T12:32:37;98334.25;;;31.07
12430;BMP280;6279;42.192;24.326;2022-08-26T12:35:07;98337.34;;;30.92
12430;BMP280;6279;42.192;24.326;2022-08-26T12:37:39;98339.56;;;30.90
12430;BMP280;6279;42.192;24.326;2022-08-26T12:40:27;98341.28;;;30.78
12430;BMP280;6279;42.192;24.326;2022-08-26T12:42:59;98329.50;;;30.36
12430;BMP280;6279;42.192;24.326;2022-08-26T12:45:55;98328.69;;;30.27
12430;BMP280;6279;42.192;24.326;2022-08-26T12:48:28;98329.22;;;30.67
12430;BMP280;6279;42.192;24.326;2022-08-26T12:50:55;98326.91;;;30.90
12430;BMP280;6279;42.192;24.326;2022-08-26T12:53:27;98323.25;;;31.16
12430;BMP280;6279;42.192;24.326;2022-08-26T12:55:55;98318.19;;;31.40
12430;BMP280;6279;42.192;24.326;2022-08-26T12:58:30;98321.91;;;31.69
12430;BMP280;6279;42.192;24.326;2022-08-26T13:14:10;98310.38;;;32.83
12430;BMP280;6279;42.192;24.326;2022-08-26T13:16:37;98325.78;;;32.38
12430;BMP280;6279;42.192;24.326;2022-08-26T13:19:09;98321.53;;;32.03
12430;BMP280;6279;42.192;24.326;2022-08-26T13:21:40;98319.47;;;32.17
12430;BMP280;6279;42.192;24.326;2022-08-26T13:24:14;98315.84;;;31.80
12430;BMP280;6279;42.192;24.326;2022-08-26T13:26:41;98319.66;;;32.20
12430;BMP280;6279;42.192;24.326;2022-08-26T13:29:08;98311.88;;;32.19
12430;BMP280;6279;42.192;24.326;2022-08-26T13:31:35;98312.19;;;32.17
12430;BMP280;6279;42.192;24.326;2022-08-26T13:34:01;98316.78;;;32.25
12430;BMP280;6279;42.192;24.326;2022-08-26T13:36:27;98306.69;;;31.89
12430;BMP280;6279;42.192;24.326;2022-08-26T13:38:52;98308.31;;;31.65
12430;BMP280;6279;42.192;24.326;2022-08-26T13:41:18;98305.72;;;31.52
12430;BMP280;6279;42.192;24.326;2022-08-26T13:43:44;98300.66;;;31.51
12430;BMP280;6279;42.192;24.326;2022-08-26T13:46:09;98299.09;;;31.58
12430;BMP280;6279;42.192;24.326;2022-08-26T13:48:35;98298.47;;;31.77
12430;BMP280;6279;42.192;24.326;2022-08-26T13:51:01;98296.25;;;31.88
12430;BMP280;6279;42.192;24.326;2022-08-26T13:53:27;98297.31;;;31.95
12430;BMP280;6279;42.192;24.326;2022-08-26T13:55:55;98289.13;;;31.83
12430;BMP280;6279;42.192;24.326;2022-08-26T13:58:20;98292.75;;;31.87
12430;BMP280;6279;42.192;24.326;2022-08-26T14:00:46;98291.44;;;32.26
12430;BMP280;6279;42.192;24.326;2022-08-26T14:03:11;98294.63;;;32.20
12430;BMP280;6279;42.192;24.326;2022-08-26T14:05:37;98300.56;;;32.42
12430;BMP280;6279;42.192;24.326;2022-08-26T14:08:02;98303.97;;;32.67
12430;BMP280;6279;42.192;24.326;2022-08-26T14:10:28;98297.78;;;32.67
12430;BMP280;6279;42.192;24.326;2022-08-26T14:12:54;98293.84;;;32.64
12430;BMP280;6279;42.192;24.326;2022-08-26T14:15:20;98297.41;;;32.40
12430;BMP280;6279;42.192;24.326;2022-08-26T14:17:47;98299.91;;;32.45
12430;BMP280;6279;42.192;24.326;2022-08-26T14:20:22;98297.16;;;32.25
12430;BMP280;6279;42.192;24.326;2022-08-26T14:22:49;98296.06;;;31.93
12430;BMP280;6279;42.192;24.326;2022-08-26T14:25:14;98298.00;;;31.84
12430;BMP280;6279;42.192;24.326;2022-08-26T14:27:40;98297.66;;;32.02
12430;BMP280;6279;42.192;24.326;2022-08-26T14:30:06;98297.66;;;32.02
12430;BMP280;6279;42.192;24.326;2022-08-26T14:32:32;98297.34;;;31.78
12430;BMP280;6279;42.192;24.326;2022-08-26T14:34:58;98300.03;;;31.78
12430;BMP280;6279;42.192;24.326;2022-08-26T14:37:24;98304.97;;;31.68
12430;BMP280;6279;42.192;24.326;2022-08-26T14:39:50;98307.59;;;31.43
12430;BMP280;6279;42.192;24.326;2022-08-26T14:42:24;98314.56;;;31.36
12430;BMP280;6279;42.192;24.326;2022-08-26T14:44:54;98312.66;;;31.36
12430;BMP280;6279;42.192;24.326;2022-08-26T14:47:20;98316.00;;;31.33
12430;BMP280;6279;42.192;24.326;2022-08-26T14:49:45;98309.34;;;31.31
12430;BMP280;6279;42.192;24.326;2022-08-26T14:52:11;98313.63;;;31.40
12430;BMP280;6279;42.192;24.326;2022-08-26T14:54:36;98304.34;;;31.54
12430;BMP280;6279;42.192;24.326;2022-08-26T14:57:05;98306.41;;;31.66
12430;BMP280;6279;42.192;24.326;2022-08-26T14:59:34;98305.56;;;31.82
12430;BMP280;6279;42.192;24.326;2022-08-26T15:01:59;98314.91;;;31.93
12430;BMP280;6279;42.192;24.326;2022-08-26T15:04:26;98309.03;;;31.82
12430;BMP280;6279;42.192;24.326;2022-08-26T15:06:53;98306.41;;;31.66
12430;BMP280;6279;42.192;24.326;2022-08-26T15:09:20;98308.41;;;31.44
12430;BMP280;6279;42.192;24.326;2022-08-26T15:11:46;98310.75;;;31.28
12430;BMP280;6279;42.192;24.326;2022-08-26T15:14:11;98308.56;;;31.30
12430;BMP280;6279;42.192;24.326;2022-08-26T15:16:37;98304.75;;;31.15
12430;BMP280;6279;42.192;24.326;2022-08-26T15:19:03;98307.06;;;31.00
12430;BMP280;6279;42.192;24.326;2022-08-26T15:21:31;98308.59;;;30.84
12430;BMP280;6279;42.192;24.326;2022-08-26T15:23:57;98304.59;;;30.73
12430;BMP280;6279;42.192;24.326;2022-08-26T15:26:23;98294.78;;;30.61
12430;BMP280;6279;42.192;24.326;2022-08-26T15:28:49;98298.63;;;30.46
12430;BMP280;6279;42.192;24.326;2022-08-26T15:31:16;98303.59;;;30.31
12430;BMP280;6279;42.192;24.326;2022-08-26T15:33:41;98300.81;;;30.15
12430;BMP280;6279;42.192;24.326;2022-08-26T15:36:07;98296.63;;;30.00